Time;durP1;ratioP1;P1;durP2;ratioP2;P2;SDS_P1;SDS_P2;PMS_P1;PMS_P2;Temp;Humidity;BMP_temperature;BMP_pressure;BME280_temperature;BME280_humidity;BME280_pressure;Samples;Min_cycle;Max_cycle;Signal;HPM_P1;HPM_P2
2021/06/04 00:01:17;;;;;;;1.42;1.33;;;18.70;99.90;;;;;;5007593;28;20294;-67
2021/06/04 00:03:43;;;;;;;1.63;1.40;;;18.70;99.90;;;;;;5007590;28;20183;-68
2021/06/04 00:06:10;;;;;;;3.45;2.05;;;18.70;99.90;;;;;;5008254;28;20188;-68
2021/06/04 00:08:36;;;;;;;1.20;1.10;;;18.70;99.90;;;;;;5007537;28;20275;-68
2021/06/04 00:11:34;;;;;;;1.70;1.60;;;18.70;99.90;;;;;;5007328;28;20747;-68
2021/06/04 00:14:14;;;;;;;1.38;1.27;;;18.60;99.90;;;;;;5008790;28;20191;-69
2021/06/04 00:16:46;;;;;;;1.48;1.38;;;18.60;99.90;;;;;;5007629;28;20187;-68
2021/06/04 00:19:16;;;;;;;1.20;1.10;;;18.60;99.90;;;;;;5007468;28;20230;-69
2021/06/04 00:21:47;;;;;;;1.30;1.20;;;18.60;99.90;;;;;;5007028;28;20215;-68
2021/06/04 00:24:14;;;;;;;1.40;1.30;;;18.50;99.90;;;;;;5007230;28;20180;-67
2021/06/04 00:26:41;;;;;;;1.30;1.20;;;18.50;99.90;;;;;;5007531;28;20245;-70
2021/06/04 00:29:08;;;;;;;1.40;1.30;;;18.50;99.90;;;;;;5007281;28;20207;-69
2021/06/04 00:31:35;;;;;;;3.75;1.50;;;18.50;99.90;;;;;;5005416;28;20652;-68
2021/06/04 00:34:01;;;;;;;1.75;1.42;;;18.50;99.90;;;;;;5006972;28;20187;-68
2021/06/04 00:36:27;;;;;;;1.77;1.13;;;18.50;99.90;;;;;;5007508;28;20188;-68
2021/06/04 00:38:54;;;;;;;1.30;1.20;;;18.50;99.90;;;;;;5007157;28;20747;-67
2021/06/04 00:41:34;;;;;;;1.38;1.27;;;18.50;99.90;;;;;;5006728;28;20229;-68
2021/06/04 00:44:00;;;;;;;1.83;1.48;;;18.40;99.90;;;;;;5007412;28;20281;-69
2021/06/04 00:46:27;;;;;;;1.30;1.20;;;18.40;99.90;;;;;;5007261;28;20323;-68
2021/06/04 00:48:54;;;;;;;1.58;1.30;;;18.40;99.90;;;;;;5006638;28;20625;-68
2021/06/04 00:51:25;;;;;;;1.60;1.50;;;18.30;99.90;;;;;;5006858;28;20198;-68
2021/06/04 00:53:51;;;;;;;1.65;1.55;;;18.30;99.90;;;;;;5006527;28;20187;-68
2021/06/04 00:56:17;;;;;;;1.70;1.23;;;18.30;99.90;;;;;;5007042;28;20919;-70
2021/06/04 00:58:45;;;;;;;1.40;1.30;;;18.30;99.90;;;;;;5006752;28;20203;-68
2021/06/04 01:01:14;;;;;;;2.75;1.50;;;18.30;99.90;;;;;;5006516;28;20282;-69
2021/06/04 01:03:45;;;;;;;1.50;1.40;;;18.30;99.90;;;;;;5006650;28;20180;-67
2021/06/04 01:06:21;;;;;;;1.50;1.40;;;18.20;99.90;;;;;;5007343;28;20179;-68
2021/06/04 01:09:19;;;;;;;1.35;1.25;;;18.10;99.90;;;;;;5006420;28;20684;-68
2021/06/04 01:12:09;;;;;;;2.20;1.23;;;18.10;99.90;;;;;;5006018;28;20245;-68
2021/06/04 01:14:45;;;;;;;1.35;1.25;;;18.10;99.90;;;;;;5005318;28;20198;-68
2021/06/04 01:17:30;;;;;;;2.35;1.27;;;18.10;99.90;;;;;;5006800;28;20543;-68
2021/06/04 01:20:01;;;;;;;1.42;1.30;;;18.10;99.90;;;;;;5006094;28;20226;-68
2021/06/04 01:22:51;;;;;;;1.80;1.70;;;18.10;99.90;;;;;;5005851;28;20187;-69
2021/06/04 01:25:45;;;;;;;1.50;1.40;;;18.00;99.90;;;;;;5006278;28;20266;-69
2021/06/04 01:28:13;;;;;;;1.50;1.40;;;17.90;99.90;;;;;;5004760;28;20187;-68
2021/06/04 01:30:58;;;;;;;1.77;1.48;;;17.80;99.90;;;;;;5006241;28;20194;-69
2021/06/04 01:33:30;;;;;;;1.48;1.38;;;17.80;99.90;;;;;;5005754;28;20545;-67
2021/06/04 01:35:59;;;;;;;1.58;1.48;;;17.70;99.90;;;;;;5005959;28;20190;-68
2021/06/04 01:38:32;;;;;;;1.88;1.70;;;17.70;99.90;;;;;;5005583;28;21061;-69
2021/06/04 01:41:04;;;;;;;1.73;1.40;;;17.70;99.90;;;;;;5005963;28;20207;-69
2021/06/04 01:43:54;;;;;;;1.63;1.52;;;17.60;99.90;;;;;;5008081;28;20547;-68
2021/06/04 01:46:39;;;;;;;1.65;1.55;;;17.50;99.90;;;;;;5006025;28;20195;-68
2021/06/04 01:49:18;;;;;;;2.17;1.80;;;17.50;99.90;;;;;;5005793;28;20227;-70
2021/06/04 01:52:07;;;;;;;3.05;2.05;;;17.50;99.90;;;;;;5005555;28;20180;-68
2021/06/04 01:54:39;;;;;;;2.00;1.90;;;17.40;99.90;;;;;;5006231;28;20274;-69
2021/06/04 01:57:10;;;;;;;1.92;1.67;;;17.40;99.90;;;;;;5006004;28;20198;-68
2021/06/04 01:59:42;;;;;;;1.73;1.63;;;17.40;99.90;;;;;;5006043;28;20572;-69
2021/06/04 02:02:10;;;;;;;2.53;2.13;;;17.40;99.90;;;;;;5005800;28;20354;-68
2021/06/04 02:04:40;;;;;;;1.80;1.48;;;17.30;99.90;;;;;;5006434;28;20180;-68
2021/06/04 02:07:15;;;;;;;1.98;1.77;;;17.30;99.90;;;;;;5006810;28;20186;-68
2021/06/04 02:09:42;;;;;;;1.73;1.63;;;17.30;99.90;;;;;;5005473;28;20260;-68
2021/06/04 02:12:09;;;;;;;3.00;1.83;;;17.30;99.90;;;;;;5005372;28;20271;-68
2021/06/04 02:14:41;;;;;;;2.10;1.80;;;17.30;99.90;;;;;;5012803;28;20199;-67
2021/06/04 02:17:20;;;;;;;1.95;1.75;;;17.30;99.90;;;;;;5005906;28;20183;-68
2021/06/04 02:20:04;;;;;;;2.05;1.85;;;17.30;99.90;;;;;;5004697;28;20215;-69
2021/06/04 02:22:35;;;;;;;2.47;2.10;;;17.30;99.90;;;;;;5005053;28;20195;-69
2021/06/04 02:25:08;;;;;;;5.05;1.90;;;17.30;99.90;;;;;;5006686;28;20195;-69
2021/06/04 02:27:38;;;;;;;2.40;1.80;;;17.30;99.90;;;;;;5006843;28;20191;-68
2021/06/04 02:30:08;;;;;;;2.97;1.83;;;17.20;99.90;;;;;;5006152;28;20655;-69
2021/06/04 02:32:59;;;;;;;3.05;1.90;;;17.20;99.90;;;;;;5005590;28;20195;-67
2021/06/04 02:35:37;;;;;;;2.70;1.83;;;17.20;99.90;;;;;;5006243;28;20188;-68
2021/06/04 02:38:15;;;;;;;2.17;1.95;;;17.20;99.90;;;;;;5005736;28;20238;-68
2021/06/04 02:40:57;;;;;;;2.08;1.85;;;17.20;99.90;;;;;;5005987;28;20215;-69
2021/06/04 02:43:28;;;;;;;2.10;1.90;;;17.40;99.90;;;;;;5007318;28;20265;-69
2021/06/04 02:45:56;;;;;;;1.85;1.60;;;17.30;99.90;;;;;;5009457;28;20203;-67
2021/06/04 02:48:24;;;;;;;2.38;2.17;;;17.30;99.90;;;;;;5009325;28;20268;-69
2021/06/04 02:51:12;;;;;;;2.10;1.88;;;17.20;99.90;;;;;;5008982;28;20187;-68
2021/06/04 02:54:00;;;;;;;1.85;1.70;;;17.20;99.90;;;;;;5001322;28;20286;-69
2021/06/04 02:56:26;;;;;;;1.95;1.77;;;17.20;99.90;;;;;;5009217;28;20449;-68
2021/06/04 02:58:57;;;;;;;2.40;2.20;;;17.20;99.90;;;;;;5008785;28;20253;-68
2021/06/04 03:01:24;;;;;;;1.98;1.80;;;17.20;99.90;;;;;;5007877;28;20207;-68
2021/06/04 03:03:52;;;;;;;2.30;2.10;;;17.20;99.90;;;;;;5007082;28;20619;-69
2021/06/04 03:06:22;;;;;;;2.30;2.10;;;17.20;99.90;;;;;;5009106;28;20266;-67
2021/06/04 03:08:49;;;;;;;2.63;1.98;;;17.20;99.90;;;;;;5008750;28;20207;-68
2021/06/04 03:11:17;;;;;;;2.53;2.33;;;17.20;99.90;;;;;;5006899;28;20188;-68
2021/06/04 03:13:43;;;;;;;2.40;2.20;;;17.20;99.90;;;;;;5008694;28;20555;-68
2021/06/04 03:16:16;;;;;;;3.05;2.20;;;17.20;99.90;;;;;;5007845;28;20196;-68
2021/06/04 03:18:48;;;;;;;2.20;1.95;;;17.10;99.90;;;;;;5006620;28;20253;-68
2021/06/04 03:21:22;;;;;;;2.50;2.30;;;17.10;99.90;;;;;;5006278;28;20203;-68
2021/06/04 03:23:48;;;;;;;2.38;2.17;;;17.10;99.90;;;;;;5006566;28;20523;-68
2021/06/04 03:26:22;;;;;;;2.95;2.30;;;17.10;99.90;;;;;;5007107;28;20194;-68
2021/06/04 03:28:51;;;;;;;3.08;2.50;;;17.20;99.90;;;;;;5006481;28;20203;-67
2021/06/04 03:31:19;;;;;;;2.25;2.05;;;17.30;99.90;;;;;;5006602;28;20706;-69
2021/06/04 03:33:46;;;;;;;2.88;2.58;;;17.20;99.90;;;;;;5005206;28;20179;-69
2021/06/04 03:36:20;;;;;;;2.35;2.15;;;17.20;99.90;;;;;;5007305;28;20191;-67
2021/06/04 03:38:47;;;;;;;4.47;2.20;;;17.30;99.90;;;;;;5005735;28;20200;-68
2021/06/04 03:41:17;;;;;;;3.10;2.80;;;17.30;99.90;;;;;;5005881;28;20702;-67
2021/06/04 03:43:43;;;;;;;2.95;2.40;;;17.20;99.90;;;;;;5005883;28;20180;-67
2021/06/04 03:46:09;;;;;;;2.20;2.00;;;17.20;99.90;;;;;;5006842;28;20702;-68
2021/06/04 03:48:35;;;;;;;4.25;2.92;;;17.10;99.90;;;;;;5005785;28;20306;-67
2021/06/04 03:51:09;;;;;;;2.88;2.33;;;17.20;99.90;;;;;;5006130;28;20180;-68
2021/06/04 03:53:35;;;;;;;2.38;2.20;;;17.10;99.90;;;;;;5005781;28;20673;-69
2021/06/04 03:56:02;;;;;;;2.17;1.98;;;17.20;99.90;;;;;;5006057;28;20191;-68
2021/06/04 03:58:28;;;;;;;3.40;1.92;;;17.30;99.90;;;;;;5005889;28;20215;-68
2021/06/04 04:00:58;;;;;;;3.33;2.10;;;17.30;99.90;;;;;;5005547;28;20207;-66
2021/06/04 04:03:26;;;;;;;2.63;2.42;;;17.30;99.90;;;;;;5005596;28;20249;-67
2021/06/04 04:05:52;;;;;;;2.35;2.05;;;17.30;99.90;;;;;;5006386;28;20198;-67
2021/06/04 04:08:21;;;;;;;2.42;2.05;;;17.30;99.90;;;;;;5005545;28;20286;-69
2021/06/04 04:10:48;;;;;;;2.50;2.30;;;17.40;99.90;;;;;;5005567;28;20203;-68
2021/06/04 04:13:16;;;;;;;2.22;2.00;;;17.40;99.90;;;;;;5005761;28;20179;-68
2021/06/04 04:15:44;;;;;;;3.08;2.28;;;17.40;99.90;;;;;;5006141;28;20265;-68
2021/06/04 04:18:10;;;;;;;2.63;2.10;;;17.40;99.90;;;;;;5005534;28;20180;-67
2021/06/04 04:20:44;;;;;;;2.60;2.40;;;17.40;99.90;;;;;;5005763;28;20573;-68
2021/06/04 04:23:12;;;;;;;3.17;2.75;;;17.40;99.90;;;;;;5005438;28;20176;-68
2021/06/04 04:25:40;;;;;;;2.78;2.22;;;17.40;99.90;;;;;;5005963;28;20175;-67
2021/06/04 04:28:09;;;;;;;3.08;2.58;;;17.40;99.90;;;;;;5005064;28;20179;-69
2021/06/04 04:30:34;;;;;;;2.33;2.13;;;17.50;99.90;;;;;;5005760;28;20196;-69
2021/06/04 04:33:01;;;;;;;2.15;1.95;;;17.40;99.90;;;;;;5004942;28;20190;-68
2021/06/04 04:35:31;;;;;;;3.67;2.40;;;17.50;99.90;;;;;;5005574;28;20185;-69
2021/06/04 04:37:56;;;;;;;3.05;2.78;;;17.50;99.90;;;;;;5005394;28;20188;-68
2021/06/04 04:40:32;;;;;;;3.17;2.67;;;17.60;99.90;;;;;;5005756;28;20187;-68
2021/06/04 04:42:58;;;;;;;3.17;2.70;;;17.70;99.90;;;;;;5003033;28;20270;-69
2021/06/04 04:45:25;;;;;;;3.20;2.67;;;17.70;99.90;;;;;;5005583;28;20781;-68
2021/06/04 04:47:51;;;;;;;4.25;3.17;;;17.70;99.90;;;;;;5005248;28;20180;-68
2021/06/04 04:50:18;;;;;;;3.70;2.97;;;17.80;99.90;;;;;;5004873;28;20665;-68
2021/06/04 04:52:44;;;;;;;3.53;2.50;;;17.70;99.90;;;;;;5004798;28;20186;-68
2021/06/04 04:55:11;;;;;;;3.13;2.83;;;17.80;99.90;;;;;;5005186;28;20544;-68
2021/06/04 04:57:37;;;;;;;3.78;2.85;;;17.90;99.90;;;;;;5005050;28;20822;-69
2021/06/04 05:00:24;;;;;;;4.65;3.30;;;17.90;99.90;;;;;;5005262;28;20763;-67
2021/06/04 05:02:51;;;;;;;4.65;3.80;;;18.00;99.90;;;;;;5003501;28;20191;-68
2021/06/04 05:05:17;;;;;;;3.60;2.97;;;18.20;99.90;;;;;;5020199;28;20183;-67
2021/06/04 05:07:43;;;;;;;3.97;3.30;;;18.20;99.90;;;;;;5004171;28;20179;-69
2021/06/04 05:10:09;;;;;;;3.55;3.22;;;18.30;99.90;;;;;;5004835;28;20218;-67
2021/06/04 05:12:36;;;;;;;3.35;3.05;;;18.40;99.90;;;;;;5004536;28;20237;-69
2021/06/04 05:15:05;;;;;;;3.42;2.75;;;18.50;99.90;;;;;;5004959;28;20237;-67
2021/06/04 05:17:30;;;;;;;4.50;2.95;;;18.70;99.90;;;;;;5004811;28;20275;-69
2021/06/04 05:19:57;;;;;;;4.20;3.03;;;18.70;99.90;;;;;;5004646;28;20384;-69
2021/06/04 05:22:23;;;;;;;3.70;3.20;;;18.80;99.90;;;;;;5004211;28;20222;-67
2021/06/04 05:24:49;;;;;;;3.95;3.20;;;18.90;99.90;;;;;;5004673;28;20643;-69
2021/06/04 05:27:14;;;;;;;4.43;3.60;;;19.00;99.90;;;;;;5004950;28;20184;-68
2021/06/04 05:29:40;;;;;;;4.38;3.10;;;19.20;99.90;;;;;;5004569;28;20214;-67
2021/06/04 05:32:07;;;;;;;3.35;3.05;;;19.30;99.90;;;;;;5004120;28;20184;-68
2021/06/04 05:34:32;;;;;;;4.18;3.28;;;19.40;99.90;;;;;;5004773;28;20184;-68
2021/06/04 05:36:58;;;;;;;3.90;3.45;;;19.50;99.90;;;;;;5019644;28;20269;-67
2021/06/04 05:39:26;;;;;;;6.28;3.63;;;19.70;99.90;;;;;;5004274;28;20407;-67
2021/06/04 05:41:59;;;;;;;4.03;3.28;;;19.70;99.90;;;;;;5000128;28;20292;-68
2021/06/04 05:44:26;;;;;;;3.40;2.95;;;19.60;99.90;;;;;;5003331;28;20658;-69
2021/06/04 05:46:56;;;;;;;5.38;3.08;;;19.70;99.90;;;;;;5000130;28;20293;-69
2021/06/04 05:49:22;;;;;;;3.72;3.00;;;19.70;99.90;;;;;;5003802;28;20647;-67
2021/06/04 05:51:49;;;;;;;4.22;3.67;;;19.60;99.90;;;;;;5003448;28;20214;-70
2021/06/04 05:54:16;;;;;;;3.75;2.80;;;19.70;99.90;;;;;;5003595;28;20294;-67
2021/06/04 05:56:42;;;;;;;4.95;4.03;;;19.80;99.90;;;;;;5002729;28;20282;-68
2021/06/04 05:59:10;;;;;;;4.45;3.20;;;19.90;99.90;;;;;;5003563;28;20253;-68
2021/06/04 06:01:36;;;;;;;3.92;2.90;;;20.00;99.90;;;;;;5018461;28;20215;-69
2021/06/04 06:04:03;;;;;;;3.92;3.53;;;20.00;99.90;;;;;;5003692;28;20836;-68
2021/06/04 06:06:29;;;;;;;5.18;3.50;;;20.20;99.90;;;;;;5004298;28;20218;-67
2021/06/04 06:08:55;;;;;;;3.83;2.67;;;20.30;99.90;;;;;;5003482;28;20230;-69
2021/06/04 06:11:25;;;;;;;4.22;3.40;;;20.50;99.90;;;;;;5003381;28;20599;-69
2021/06/04 06:13:56;;;;;;;3.97;3.35;;;20.60;99.90;;;;;;5003669;28;20194;-67
2021/06/04 06:16:23;;;;;;;3.30;2.85;;;20.90;99.90;;;;;;5004030;28;20183;-69
2021/06/04 06:18:49;;;;;;;3.40;2.88;;;21.60;99.90;;;;;;5006092;28;20207;-69
2021/06/04 06:21:15;;;;;;;3.13;2.83;;;22.30;99.90;;;;;;5007272;28;20226;-69
2021/06/04 06:23:42;;;;;;;3.75;3.35;;;22.60;99.90;;;;;;5007857;28;20179;-69
2021/06/04 06:26:23;;;;;;;3.42;2.95;;;22.60;99.90;;;;;;5008266;28;20184;-68
2021/06/04 06:28:50;;;;;;;3.38;3.05;;;22.40;99.90;;;;;;5007377;28;20290;-68
2021/06/04 06:31:24;;;;;;;4.10;3.20;;;22.30;99.90;;;;;;5006173;28;20182;-67
2021/06/04 06:33:52;;;;;;;3.67;3.38;;;22.30;99.90;;;;;;5007738;28;20188;-68
2021/06/04 06:36:22;;;;;;;3.92;3.28;;;22.30;99.90;;;;;;5008435;28;20180;-67
2021/06/04 06:38:49;;;;;;;3.28;2.83;;;22.40;99.90;;;;;;5007285;28;20195;-69
2021/06/04 06:41:14;;;;;;;6.10;3.80;;;22.60;99.90;;;;;;5007403;28;20211;-69
2021/06/04 06:43:44;;;;;;;4.97;3.70;;;22.80;99.90;;;;;;5007574;28;20640;-69
2021/06/04 06:46:10;;;;;;;7.03;3.67;;;22.80;99.90;;;;;;5007897;28;20582;-68
2021/06/04 06:48:36;;;;;;;5.43;4.43;;;23.10;99.90;;;;;;5007048;28;20254;-68
2021/06/04 06:51:04;;;;;;;6.13;3.85;;;23.40;99.90;;;;;;5007405;28;20196;-67
2021/06/04 06:53:29;;;;;;;6.70;3.63;;;23.40;99.90;;;;;;5008111;28;20178;-72
2021/06/04 06:55:57;;;;;;;7.47;4.32;;;23.40;99.90;;;;;;5007819;28;20325;-68
2021/06/04 06:58:25;;;;;;;5.30;3.42;;;23.40;99.90;;;;;;5007667;28;20249;-67
2021/06/04 07:00:52;;;;;;;5.38;3.35;;;23.40;99.90;;;;;;5006677;28;20210;-67
2021/06/04 07:03:26;;;;;;;4.18;3.67;;;23.40;99.90;;;;;;5007328;28;20439;-67
2021/06/04 07:05:52;;;;;;;5.38;3.47;;;23.40;99.90;;;;;;5007198;28;20192;-67
2021/06/04 07:08:18;;;;;;;6.07;3.78;;;23.30;99.90;;;;;;5005745;28;20203;-67
2021/06/04 07:10:44;;;;;;;5.47;3.75;;;23.30;99.90;;;;;;5006789;28;20188;-67
2021/06/04 07:13:13;;;;;;;4.53;3.13;;;23.40;99.90;;;;;;5007205;28;20530;-67
2021/06/04 07:15:40;;;;;;;9.52;3.50;;;23.40;99.90;;;;;;5006935;28;20660;-67
2021/06/04 07:18:07;;;;;;;4.47;3.10;;;23.60;99.90;;;;;;5007563;28;20184;-66
2021/06/04 07:20:35;;;;;;;5.95;3.55;;;23.60;99.90;;;;;;5006927;28;20219;-67
2021/06/04 07:23:04;;;;;;;8.52;3.65;;;23.80;99.90;;;;;;5006603;28;20175;-68
2021/06/04 07:25:33;;;;;;;6.28;4.20;;;24.10;99.90;;;;;;5001486;28;20242;-68
2021/06/04 07:28:00;;;;;;;4.40;3.22;;;24.30;99.90;;;;;;5007025;28;20180;-66
2021/06/04 07:30:30;;;;;;;5.05;3.42;;;24.50;99.90;;;;;;5006020;28;20590;-68
2021/06/04 07:32:57;;;;;;;3.53;2.92;;;24.50;99.90;;;;;;5006474;28;20550;-67
2021/06/04 07:35:25;;;;;;;5.50;2.92;;;24.50;99.90;;;;;;5006515;28;20207;-66
2021/06/04 07:37:51;;;;;;;4.78;2.65;;;24.70;99.90;;;;;;5006644;28;20178;-68
2021/06/04 07:40:20;;;;;;;3.22;2.53;;;24.70;99.90;;;;;;5003969;28;20234;-67
2021/06/04 07:42:47;;;;;;;2.75;2.30;;;24.80;99.90;;;;;;5004718;28;20176;-69
2021/06/04 07:45:15;;;;;;;2.95;2.55;;;24.90;99.90;;;;;;5005867;28;20662;-68
2021/06/04 07:47:41;;;;;;;11.60;3.70;;;25.10;99.90;;;;;;5006081;28;20392;-67
2021/06/04 07:50:09;;;;;;;3.38;2.80;;;24.90;99.90;;;;;;5006271;28;20200;-67
2021/06/04 07:52:35;;;;;;;3.75;2.78;;;25.00;99.90;;;;;;5006419;28;20195;-67
2021/06/04 07:55:01;;;;;;;2.35;2.15;;;25.10;99.90;;;;;;5006102;28;20550;-68
2021/06/04 07:57:27;;;;;;;2.92;2.53;;;24.90;99.90;;;;;;5006859;28;20190;-68
2021/06/04 07:59:52;;;;;;;4.30;2.53;;;24.60;99.90;;;;;;5005703;28;20211;-66
2021/06/04 08:02:19;;;;;;;3.80;2.90;;;24.70;99.90;;;;;;5005737;28;20211;-67
2021/06/04 08:04:44;;;;;;;5.13;2.38;;;24.90;99.90;;;;;;5006220;28;20423;-67
2021/06/04 08:07:10;;;;;;;3.25;2.60;;;24.80;99.90;;;;;;5006063;28;20184;-69
2021/06/04 08:09:37;;;;;;;3.53;2.47;;;25.10;99.90;;;;;;5006048;28;20200;-68
2021/06/04 08:12:04;;;;;;;3.97;3.38;;;25.10;99.90;;;;;;5005230;28;20184;-68
2021/06/04 08:14:31;;;;;;;4.47;3.42;;;25.20;99.90;;;;;;5005883;28;20192;-67
2021/06/04 08:16:58;;;;;;;5.60;3.47;;;25.30;99.90;;;;;;5005957;28;20207;-67
2021/06/04 08:19:26;;;;;;;4.07;3.13;;;25.30;99.90;;;;;;5005760;28;20231;-67
2021/06/04 08:21:53;;;;;;;4.07;3.03;;;24.70;99.90;;;;;;5005171;28;20203;-67
2021/06/04 08:24:23;;;;;;;3.95;2.85;;;24.80;99.90;;;;;;5005777;28;20222;-66
2021/06/04 08:26:50;;;;;;;3.75;3.10;;;24.90;99.90;;;;;;5005777;28;20186;-68
2021/06/04 08:29:16;;;;;;;4.05;2.90;;;25.10;99.90;;;;;;5005290;28;20278;-69
2021/06/04 08:31:43;;;;;;;4.78;3.00;;;25.30;99.90;;;;;;5004785;28;20270;-67
2021/06/04 08:34:09;;;;;;;2.53;2.30;;;25.10;99.90;;;;;;5005894;28;20717;-67
2021/06/04 08:36:37;;;;;;;3.05;2.45;;;25.20;99.90;;;;;;5005419;28;20345;-67
2021/06/04 08:39:11;;;;;;;3.75;2.83;;;25.00;99.90;;;;;;5005754;28;20212;-67
2021/06/04 08:41:56;;;;;;;3.22;2.60;;;24.90;99.90;;;;;;4999245;28;20227;-67
2021/06/04 08:44:55;;;;;;;3.08;2.70;;;24.90;99.90;;;;;;5004521;28;20305;-67
2021/06/04 08:47:24;;;;;;;3.60;2.65;;;25.00;99.90;;;;;;5004487;28;20651;-67
2021/06/04 08:50:05;;;;;;;4.25;3.53;;;25.20;99.90;;;;;;5004421;28;20261;-67
2021/06/04 08:52:39;;;;;;;3.22;2.92;;;25.40;99.90;;;;;;5004326;28;20191;-67
2021/06/04 08:56:01;;;;;;;3.10;2.72;;;25.50;99.90;;;;;;5004785;28;20183;-66
2021/06/04 08:58:49;;;;;;;3.08;2.65;;;25.60;99.90;;;;;;4992118;28;20551;-67
2021/06/04 09:01:23;;;;;;;3.65;2.53;;;25.80;99.90;;;;;;4990601;28;20219;-67
2021/06/04 09:04:03;;;;;;;3.42;2.85;;;25.90;99.90;;;;;;5004673;28;20557;-66
2021/06/04 09:06:39;;;;;;;3.00;2.75;;;25.70;99.90;;;;;;5004438;28;20639;-67
2021/06/04 09:09:39;;;;;;;4.07;2.63;;;25.60;99.90;;;;;;5005319;28;20559;-67
2021/06/04 09:12:18;;;;;;;3.35;3.05;;;25.60;99.90;;;;;;5007051;28;20183;-67
2021/06/04 09:14:45;;;;;;;3.53;2.78;;;25.70;99.90;;;;;;5005442;28;20186;-67
2021/06/04 09:17:31;;;;;;;4.68;3.25;;;25.70;99.90;;;;;;5004187;28;20551;-66
2021/06/04 09:20:03;;;;;;;3.17;2.88;;;26.00;99.90;;;;;;5004506;28;20628;-66
2021/06/04 09:22:35;;;;;;;3.92;3.38;;;26.30;99.90;;;;;;5003872;28;20203;-67
2021/06/04 09:25:03;;;;;;;3.63;3.30;;;26.50;99.90;;;;;;5004477;28;20183;-67
2021/06/04 09:27:39;;;;;;;2.92;2.65;;;26.30;99.90;;;;;;5004366;28;20180;-66
2021/06/04 09:30:10;;;;;;;3.70;3.05;;;26.30;99.90;;;;;;5004642;28;20623;-66
2021/06/04 09:32:37;;;;;;;3.13;2.83;;;26.30;99.90;;;;;;5003963;28;20542;-66
2021/06/04 09:35:20;;;;;;;4.22;3.58;;;26.30;99.90;;;;;;5004387;28;20282;-67
2021/06/04 09:37:46;;;;;;;3.60;3.03;;;26.30;99.90;;;;;;5004099;28;20215;-66
2021/06/04 09:40:29;;;;;;;3.95;3.55;;;26.30;99.90;;;;;;5004156;28;20729;-67
2021/06/04 09:43:03;;;;;;;3.15;2.85;;;26.10;99.90;;;;;;5003937;28;20191;-67
2021/06/04 09:45:43;;;;;;;3.65;3.30;;;26.30;99.90;;;;;;5004065;28;20252;-67
2021/06/04 09:48:13;;;;;;;3.58;3.10;;;26.50;99.90;;;;;;5003818;28;20183;-67
2021/06/04 09:50:45;;;;;;;4.65;3.65;;;26.50;99.90;;;;;;5004311;28;20262;-68
2021/06/04 09:53:18;;;;;;;4.07;3.65;;;26.30;99.90;;;;;;5003814;28;20268;-67
2021/06/04 09:56:06;;;;;;;3.33;3.03;;;26.40;99.90;;;;;;5004690;28;20180;-66
2021/06/04 09:58:54;;;;;;;3.75;3.00;;;26.50;99.90;;;;;;5004196;28;20215;-67
2021/06/04 10:01:26;;;;;;;4.75;3.20;;;26.60;99.90;;;;;;5003709;28;20230;-68
2021/06/04 10:04:11;;;;;;;4.32;3.15;;;26.60;99.90;;;;;;5004716;28;20180;-66
2021/06/04 10:06:46;;;;;;;3.47;3.10;;;26.50;99.90;;;;;;5004173;28;20326;-68
2021/06/04 10:09:28;;;;;;;3.72;3.42;;;26.50;99.90;;;;;;5004269;28;20210;-68
2021/06/04 10:12:00;;;;;;;3.47;3.17;;;26.70;99.90;;;;;;5003388;28;20183;-67
2021/06/04 10:14:44;;;;;;;3.85;3.47;;;26.90;99.90;;;;;;5004325;28;20184;-67
2021/06/04 10:20:34;;;;;;;5.47;3.50;;;26.90;99.90;;;;;;4967025;28;20275;-67
2021/06/04 10:23:07;;;;;;;3.35;3.05;;;27.00;99.90;;;;;;4995352;28;20192;-67
2021/06/04 10:25:41;;;;;;;3.20;2.40;;;27.00;99.90;;;;;;5003253;28;20270;-67
2021/06/04 10:28:45;;;;;;;3.08;2.65;;;27.20;99.90;;;;;;5003905;28;21485;-66
2021/06/04 10:31:16;;;;;;;3.30;2.75;;;27.50;99.90;;;;;;5003157;28;20194;-67
2021/06/04 10:34:23;;;;;;;3.80;2.80;;;27.60;99.90;;;;;;5004649;28;20181;-67
2021/06/04 10:36:54;;;;;;;3.65;2.50;;;27.70;99.90;;;;;;4981104;28;20199;-66
2021/06/04 10:39:36;;;;;;;3.05;2.30;;;27.90;99.90;;;;;;5002129;28;20560;-66
2021/06/04 10:42:08;;;;;;;4.03;2.72;;;27.80;99.90;;;;;;5001684;28;20200;-66
2021/06/04 10:45:11;;;;;;;3.25;2.88;;;28.00;99.90;;;;;;5001863;28;20179;-66
2021/06/04 10:48:06;;;;;;;2.92;2.60;;;27.90;99.90;;;;;;5003312;28;20661;-66
2021/06/04 10:50:51;;;;;;;3.40;3.10;;;28.00;99.90;;;;;;5004149;28;20258;-66
2021/06/04 10:53:32;;;;;;;2.90;2.33;;;28.00;99.90;;;;;;5003739;28;20410;-67
2021/06/04 10:56:16;;;;;;;3.38;2.70;;;28.20;99.90;;;;;;5003572;28;20176;-66
2021/06/04 10:58:55;;;;;;;2.80;2.60;;;28.30;99.90;;;;;;5003896;28;20556;-67
2021/06/04 11:01:30;;;;;;;3.58;3.28;;;28.30;99.90;;;;;;5002907;28;20214;-67
2021/06/04 11:04:06;;;;;;;2.67;2.28;;;28.40;99.90;;;;;;5004050;28;20501;-66
2021/06/04 11:06:47;;;;;;;2.60;2.40;;;28.30;99.90;;;;;;5007379;28;20270;-67
2021/06/04 11:09:21;;;;;;;2.70;2.40;;;28.30;99.90;;;;;;5007357;28;20199;-67
2021/06/04 11:11:53;;;;;;;3.22;2.92;;;28.20;99.90;;;;;;5000491;28;20650;-67
2021/06/04 11:14:44;;;;;;;3.20;3.00;;;28.30;99.90;;;;;;5003803;28;20191;-65
2021/06/04 11:17:18;;;;;;;3.47;3.17;;;28.50;99.90;;;;;;5006435;28;20176;-66
2021/06/04 11:19:53;;;;;;;3.58;3.17;;;28.50;99.90;;;;;;5006994;28;21224;-66
2021/06/04 11:22:24;;;;;;;3.38;2.75;;;28.60;99.90;;;;;;5004492;28;20210;-66
2021/06/04 11:25:03;;;;;;;5.82;3.55;;;28.60;99.90;;;;;;5006593;28;20180;-67
2021/06/04 11:27:39;;;;;;;3.60;3.20;;;28.20;99.90;;;;;;5006416;28;20800;-66
2021/06/04 11:30:14;;;;;;;3.35;3.05;;;27.70;99.90;;;;;;5006805;28;20207;-65
2021/06/04 11:32:49;;;;;;;3.17;2.88;;;27.50;99.90;;;;;;5005841;28;20194;-65
2021/06/04 11:35:18;;;;;;;3.30;3.00;;;27.50;99.90;;;;;;5005140;28;20218;-65
2021/06/04 11:38:02;;;;;;;3.10;2.80;;;27.70;99.90;;;;;;5006590;28;20186;-65
2021/06/04 11:40:33;;;;;;;3.55;3.25;;;27.90;99.90;;;;;;5006672;28;20194;-67
2021/06/04 11:43:28;;;;;;;3.53;3.22;;;27.90;99.90;;;;;;5005602;28;20295;-66
2021/06/04 11:46:17;;;;;;;3.88;3.47;;;28.10;99.90;;;;;;5017892;28;20286;-67
2021/06/04 11:49:13;;;;;;;3.58;3.28;;;28.10;99.90;;;;;;5006542;28;20210;-65
2021/06/04 11:51:52;;;;;;;3.50;3.20;;;28.30;99.90;;;;;;5003308;28;20237;-66
2021/06/04 11:54:30;;;;;;;3.60;3.30;;;28.30;99.90;;;;;;5006091;28;20242;-66
2021/06/04 11:57:33;;;;;;;3.60;3.30;;;28.40;99.90;;;;;;5005456;28;20249;-68
2021/06/04 12:00:29;;;;;;;3.72;3.42;;;28.50;99.90;;;;;;5006382;28;20207;-67
2021/06/04 12:03:04;;;;;;;4.57;3.47;;;28.60;99.60;;;;;;5005963;28;20259;-65
2021/06/04 12:05:43;;;;;;;3.00;2.80;;;28.60;99.80;;;;;;5006220;28;20605;-67
2021/06/04 12:08:18;;;;;;;4.70;3.55;;;28.70;99.30;;;;;;5005929;28;20202;-67
2021/06/04 12:10:46;;;;;;;3.92;3.63;;;28.70;99.20;;;;;;5005843;28;20191;-66
2021/06/04 12:13:38;;;;;;;3.63;3.35;;;28.70;99.90;;;;;;5006373;28;20188;-67
2021/06/04 12:16:28;;;;;;;3.30;3.10;;;28.80;99.90;;;;;;5005953;28;20647;-66
2021/06/04 12:19:17;;;;;;;3.80;3.50;;;28.80;99.90;;;;;;5006588;28;20211;-67
2021/06/04 12:21:43;;;;;;;3.70;3.40;;;28.90;98.50;;;;;;5002644;28;20231;-66
2021/06/04 12:24:20;;;;;;;4.00;3.70;;;28.90;99.70;;;;;;5006240;28;20794;-65
2021/06/04 12:26:54;;;;;;;3.53;3.22;;;29.20;99.90;;;;;;5005512;28;20175;-65
2021/06/04 12:29:26;;;;;;;3.88;3.47;;;29.40;99.70;;;;;;5005338;28;20608;-64
2021/06/04 12:32:07;;;;;;;3.75;3.45;;;29.50;98.80;;;;;;5004261;28;20199;-65
2021/06/04 12:34:36;;;;;;;3.78;3.47;;;29.60;98.40;;;;;;5005604;28;20191;-66
2021/06/04 12:37:25;;;;;;;4.25;3.95;;;29.60;99.00;;;;;;5005024;28;20184;-65
2021/06/04 12:39:50;;;;;;;4.45;4.05;;;29.60;99.40;;;;;;5004945;28;20243;-64
2021/06/04 12:42:17;;;;;;;3.88;3.58;;;29.50;99.10;;;;;;5004875;28;20605;-65
2021/06/04 12:45:15;;;;;;;4.70;4.30;;;29.40;99.10;;;;;;5005921;28;20237;-66
2021/06/04 12:47:53;;;;;;;4.32;4.03;;;29.40;98.20;;;;;;5004424;28;20276;-64
2021/06/04 12:50:32;;;;;;;3.70;3.40;;;29.10;98.90;;;;;;5001659;28;20529;-66
2021/06/04 12:53:26;;;;;;;3.97;3.67;;;29.30;99.90;;;;;;5002365;28;20175;-64
2021/06/04 12:56:10;;;;;;;3.83;3.53;;;29.60;99.20;;;;;;5004871;28;20262;-66
2021/06/04 12:58:37;;;;;;;4.45;4.05;;;29.70;98.60;;;;;;5003970;28;20207;-65
2021/06/04 13:01:06;;;;;;;4.28;3.97;;;29.70;97.30;;;;;;5003345;28;20199;-65
2021/06/04 13:03:36;;;;;;;4.07;3.78;;;29.80;97.20;;;;;;5003344;28;20253;-64
2021/06/04 13:06:03;;;;;;;4.35;3.95;;;29.70;97.30;;;;;;5004571;28;20246;-65
2021/06/04 13:08:34;;;;;;;3.60;3.30;;;29.60;98.20;;;;;;5003955;28;20310;-66
2021/06/04 13:11:03;;;;;;;4.15;3.75;;;29.70;98.00;;;;;;5004231;28;20250;-65
2021/06/04 13:13:30;;;;;;;3.47;3.20;;;29.60;97.40;;;;;;5003160;28;20191;-64
2021/06/04 13:16:11;;;;;;;3.75;3.45;;;29.30;96.00;;;;;;5003847;28;20670;-66
2021/06/04 13:18:36;;;;;;;3.70;3.40;;;29.40;94.90;;;;;;5004115;28;20222;-66
2021/06/04 13:21:18;;;;;;;3.25;2.92;;;29.20;95.50;;;;;;5004176;28;21263;-66